Time;durP1;ratioP1;P1;durP2;ratioP2;P2;SDS_P1;SDS_P2;PMS_P1;PMS_P2;Temp;Humidity;BMP_temperature;BMP_pressure;BME280_temperature;BME280_humidity;BME280_pressure;Samples;Min_cycle;Max_cycle;Signal;HPM_P1;HPM_P2
2022/03/17 00:01:43;;;;;;;123.60;54.70;;;;;;;1.35;85.18;100701.70;103512;1300;24219;-29
2022/03/17 00:04:08;;;;;;;139.10;67.20;;;;;;;1.33;85.92;100701.88;103611;1300;24237;-27
2022/03/17 00:06:34;;;;;;;133.00;62.90;;;;;;;1.30;86.62;100702.23;103456;1300;24284;-29
2022/03/17 00:09:01;;;;;;;187.80;73.30;;;;;;;1.28;87.05;100699.75;103473;1300;24323;-29
2022/03/17 00:11:28;;;;;;;142.40;62.70;;;;;;;1.28;87.24;100698.65;103593;1300;24282;-29
2022/03/17 00:13:54;;;;;;;141.20;64.10;;;;;;;1.35;87.25;100693.75;103609;1300;23726;-28
2022/03/17 00:16:20;;;;;;;148.10;72.00;;;;;;;1.36;87.29;100695.30;103628;1300;24213;-29
2022/03/17 00:18:46;;;;;;;194.30;86.70;;;;;;;1.33;87.22;100690.52;103672;1299;22873;-29
2022/03/17 00:21:12;;;;;;;292.40;142.70;;;;;;;1.36;87.07;100689.08;103618;1301;24702;-29
2022/03/17 00:23:38;;;;;;;263.00;134.40;;;;;;;1.40;86.75;100687.09;103663;1300;24318;-29
2022/03/17 00:26:03;;;;;;;269.30;138.80;;;;;;;1.50;86.50;100685.38;103578;1302;24294;-27
2022/03/17 00:28:29;;;;;;;305.10;158.90;;;;;;;1.65;85.98;100683.23;103645;1300;24247;-29
2022/03/17 00:30:56;;;;;;;268.80;134.00;;;;;;;1.80;85.26;100675.63;103649;1300;24253;-28
2022/03/17 00:33:22;;;;;;;161.90;80.70;;;;;;;1.85;84.48;100673.30;103487;1301;24299;-29
2022/03/17 00:35:47;;;;;;;228.30;116.90;;;;;;;1.82;84.08;100673.02;103537;1300;24170;-29
2022/03/17 00:38:17;;;;;;;179.20;90.70;;;;;;;1.78;83.75;100676.12;103702;1300;24214;-29
2022/03/17 00:40:44;;;;;;;204.80;95.70;;;;;;;1.74;83.33;100681.15;103594;1300;24547;-26
2022/03/17 00:43:12;;;;;;;162.60;83.10;;;;;;;1.72;83.12;100686.06;103549;1300;24189;-30
2022/03/17 00:45:38;;;;;;;141.40;72.20;;;;;;;1.70;82.66;100683.23;103690;1300;24371;-26
2022/03/17 00:48:04;;;;;;;128.70;61.50;;;;;;;1.65;82.49;100689.02;103651;1300;24311;-31
2022/03/17 00:50:30;;;;;;;86.40;37.80;;;;;;;1.57;82.34;100687.33;103520;1302;24408;-25
2022/03/17 00:52:56;;;;;;;109.20;52.00;;;;;;;1.52;82.26;100690.69;103680;1300;24256;-26
2022/03/17 00:55:22;;;;;;;78.10;37.30;;;;;;;1.49;82.03;100695.83;103633;1300;24211;-29
2022/03/17 00:57:48;;;;;;;76.40;32.50;;;;;;;1.44;81.89;100696.34;103632;1300;24196;-26
2022/03/17 01:00:15;;;;;;;77.90;35.60;;;;;;;1.38;81.90;100702.23;103526;1300;24211;-25
2022/03/17 01:02:41;;;;;;;72.20;32.20;;;;;;;1.31;81.78;100703.61;103531;1300;24253;-26
2022/03/17 01:05:07;;;;;;;76.40;33.30;;;;;;;1.25;81.80;100705.42;103511;1301;24307;-30
2022/03/17 01:07:34;;;;;;;70.30;35.40;;;;;;;1.19;82.00;100704.59;103640;1297;24368;-28
2022/03/17 01:10:00;;;;;;;73.60;34.10;;;;;;;1.13;81.95;100702.48;103546;1302;24194;-28
2022/03/17 01:12:25;;;;;;;77.50;35.70;;;;;;;1.09;81.80;100699.27;103523;1300;22695;-25
2022/03/17 01:14:52;;;;;;;99.50;38.40;;;;;;;1.05;81.98;100697.80;103686;1300;24243;-25
2022/03/17 01:17:17;;;;;;;112.20;53.90;;;;;;;0.99;81.98;100699.08;103525;1302;24448;-25
2022/03/17 01:19:43;;;;;;;89.10;35.30;;;;;;;0.92;81.93;100703.96;103716;1300;24305;-28
2022/03/17 01:22:08;;;;;;;71.10;34.50;;;;;;;0.84;81.82;100711.01;103548;1300;24676;-26
2022/03/17 01:24:34;;;;;;;88.10;48.30;;;;;;;0.78;81.78;100721.59;103634;1299;24204;-30
2022/03/17 01:27:00;;;;;;;70.40;33.80;;;;;;;0.73;82.03;100727.42;103482;1302;24343;-31
2022/03/17 01:29:26;;;;;;;73.80;31.20;;;;;;;0.69;83.23;100725.04;103600;1299;24310;-25
2022/03/17 01:31:52;;;;;;;94.10;36.70;;;;;;;0.73;84.53;100724.95;103685;1300;24204;-29
2022/03/17 01:34:18;;;;;;;116.50;51.40;;;;;;;0.74;82.57;100726.84;103623;1300;24215;-26
2022/03/17 01:36:44;;;;;;;73.30;31.40;;;;;;;0.73;82.55;100721.79;103649;1299;24402;-28
2022/03/17 01:39:10;;;;;;;152.60;81.00;;;;;;;0.73;82.37;100720.53;103486;1302;24259;-30
2022/03/17 01:41:36;;;;;;;83.10;38.00;;;;;;;0.74;82.23;100722.40;103550;1302;24314;-29
2022/03/17 01:44:02;;;;;;;76.70;34.60;;;;;;;0.72;82.19;100726.45;103653;1299;22493;-28
2022/03/17 01:46:28;;;;;;;76.30;32.70;;;;;;;0.68;82.14;100731.13;103704;1300;24256;-26
2022/03/17 01:48:54;;;;;;;70.30;33.20;;;;;;;0.65;82.25;100728.79;103598;1299;24285;-30
2022/03/17 01:51:19;;;;;;;69.50;27.60;;;;;;;0.64;82.22;100724.60;103533;1300;24270;-30
2022/03/17 01:53:45;;;;;;;69.10;28.50;;;;;;;0.63;82.51;100720.46;103631;1299;24396;-28
2022/03/17 01:56:10;;;;;;;67.70;29.90;;;;;;;0.63;82.31;100718.02;103564;1300;22597;-29
2022/03/17 01:58:36;;;;;;;76.50;33.00;;;;;;;0.62;82.33;100723.73;103599;1300;22545;-26
2022/03/17 02:01:02;;;;;;;70.50;31.40;;;;;;;0.60;82.35;100723.83;103635;1299;24304;-29
2022/03/17 02:03:27;;;;;;;259.90;120.80;;;;;;;0.60;82.29;100728.23;103486;1302;24359;-26
2022/03/17 02:05:54;;;;;;;123.30;61.10;;;;;;;0.64;82.48;100731.90;103620;1300;22492;-26
2022/03/17 02:08:19;;;;;;;212.60;104.10;;;;;;;0.68;82.67;100734.80;103604;1301;24227;-31
2022/03/17 02:13:15;;;;;;;282.30;137.70;;;;;;;0.73;82.67;100743.11;103602;1301;24282;-29
2022/03/17 02:15:40;;;;;;;937.30;458.10;;;;;;;0.68;82.73;100752.77;103578;1300;24241;-25
2022/03/17 02:18:06;;;;;;;724.30;399.50;;;;;;;0.63;82.32;100755.20;103610;1300;24221;-25
2022/03/17 02:20:33;;;;;;;318.70;178.60;;;;;;;0.57;82.18;100754.68;103656;1300;24233;-28
2022/03/17 02:25:33;;;;;;;299.70;170.90;;;;;;;0.55;82.12;100752.05;103577;1300;24243;-26
2022/03/17 02:25:50;;;;;;;100.30;59.80;;;;;;;0.59;82.39;100747.01;103634;1300;24287;-26
2022/03/17 02:28:16;;;;;;;128.70;83.70;;;;;;;0.58;82.66;100743.91;103534;1302;24338;-29
2022/03/17 02:30:41;;;;;;;103.80;56.10;;;;;;;0.58;82.68;100739.67;103394;1302;24278;-30
2022/03/17 02:33:08;;;;;;;117.60;59.90;;;;;;;0.57;82.55;100735.14;103702;1300;22705;-26
2022/03/17 02:35:34;;;;;;;154.60;61.70;;;;;;;0.59;82.60;100733.81;103570;1300;24294;-29
2022/03/17 02:38:03;;;;;;;110.70;53.40;;;;;;;0.66;82.60;100735.63;103642;1300;22504;-30
2022/03/17 02:40:28;;;;;;;90.10;44.70;;;;;;;0.73;82.43;100730.43;103586;1300;24026;-26
2022/03/17 02:42:54;;;;;;;86.90;43.70;;;;;;;0.78;82.40;100733.96;103522;1301;24211;-26
2022/03/17 02:45:21;;;;;;;153.00;88.50;;;;;;;0.84;82.33;100739.01;103694;1300;22510;-25
2022/03/17 02:47:47;;;;;;;86.60;45.80;;;;;;;0.89;82.12;100741.69;103635;1300;24345;-29
2022/03/17 02:50:13;;;;;;;168.50;91.30;;;;;;;0.94;81.91;100742.62;103621;1299;24284;-27
2022/03/17 02:52:39;;;;;;;104.10;55.40;;;;;;;1.00;81.71;100740.58;103587;1299;24240;-30
2022/03/17 02:55:05;;;;;;;120.40;56.30;;;;;;;1.04;81.45;100736.98;103438;1302;22884;-28
2022/03/17 02:57:31;;;;;;;104.30;55.60;;;;;;;1.08;81.34;100734.08;103610;1300;24349;-26
2022/03/17 02:59:57;;;;;;;87.70;45.60;;;;;;;1.10;81.02;100735.00;103681;1300;22498;-25
2022/03/17 03:02:22;;;;;;;120.20;69.10;;;;;;;1.10;80.80;100732.36;103512;1300;24252;-27
2022/03/17 03:04:48;;;;;;;95.50;51.70;;;;;;;1.10;80.70;100737.65;103633;1299;24651;-27
2022/03/17 03:07:14;;;;;;;72.10;38.70;;;;;;;1.09;80.55;100738.23;103671;1299;24336;-27
2022/03/17 03:09:40;;;;;;;83.30;40.40;;;;;;;1.07;80.49;100743.13;103498;1299;24249;-29
2022/03/17 03:12:07;;;;;;;79.70;38.20;;;;;;;1.03;80.50;100741.84;103547;1300;24221;-26
2022/03/17 03:14:33;;;;;;;74.40;33.50;;;;;;;1.04;80.58;100735.42;103548;1300;24250;-26
2022/03/17 03:16:58;;;;;;;71.00;32.80;;;;;;;1.00;80.57;100737.13;103679;1299;22514;-26
2022/03/17 03:19:24;;;;;;;80.10;39.80;;;;;;;0.97;80.78;100731.85;103683;1300;24208;-26
2022/03/17 03:21:50;;;;;;;140.00;81.90;;;;;;;0.94;80.83;100731.67;103559;1302;24246;-29
2022/03/17 03:24:16;;;;;;;69.40;33.00;;;;;;;0.88;80.98;100733.45;103596;1302;24368;-26
2022/03/17 03:26:43;;;;;;;74.00;31.20;;;;;;;0.79;81.30;100736.04;103572;1300;22505;-26
2022/03/17 03:31:38;;;;;;;69.70;30.90;;;;;;;0.65;81.89;100736.04;103607;1302;22826;-31
2022/03/17 03:34:04;;;;;;;61.60;28.40;;;;;;;0.59;82.13;100734.33;103565;1299;24189;-25
2022/03/17 03:39:15;;;;;;;73.40;31.90;;;;;;;0.45;82.84;100743.46;103636;1299;24242;-29
2022/03/17 03:41:41;;;;;;;70.70;32.60;;;;;;;0.42;82.85;100743.14;103618;1299;24358;-29
2022/03/17 03:44:07;;;;;;;78.90;32.70;;;;;;;0.36;83.34;100737.73;103520;1300;24339;-28
2022/03/17 03:46:33;;;;;;;62.60;30.70;;;;;;;0.34;83.49;100732.95;103604;1300;22512;-29
2022/03/17 03:48:59;;;;;;;75.10;30.70;;;;;;;0.30;83.74;100725.06;103627;1300;24367;-26
2022/03/17 03:51:25;;;;;;;76.00;32.80;;;;;;;0.27;84.18;100721.79;103555;1300;23007;-26
2022/03/17 03:56:20;;;;;;;72.90;32.40;;;;;;;0.23;84.48;100715.66;103563;1300;24211;-27
2022/03/17 03:58:45;;;;;;;69.90;30.60;;;;;;;0.20;84.54;100717.09;103441;1300;23051;-29
2022/03/17 04:01:11;;;;;;;69.10;30.40;;;;;;;0.20;84.73;100720.45;103568;1301;22511;-29
2022/03/17 04:03:37;;;;;;;70.80;34.50;;;;;;;0.23;84.64;100720.10;103607;1300;24279;-26
2022/03/17 04:06:03;;;;;;;69.00;33.10;;;;;;;0.26;84.61;100716.73;103570;1300;25028;-29
2022/03/17 04:08:28;;;;;;;88.40;31.90;;;;;;;0.23;85.18;100719.01;103495;1300;24239;-30
2022/03/17 04:10:54;;;;;;;71.80;33.90;;;;;;;0.24;85.10;100715.76;103462;1301;24323;-25
2022/03/17 04:13:20;;;;;;;66.90;33.60;;;;;;;0.27;85.08;100715.98;103298;1300;347365;-29
2022/03/17 04:15:46;;;;;;;86.10;34.30;;;;;;;0.31;84.99;100719.55;103481;1300;24269;-27
2022/03/17 04:18:11;;;;;;;68.20;31.00;;;;;;;0.36;84.89;100721.86;103449;1302;24240;-26
2022/03/17 04:20:37;;;;;;;84.30;39.20;;;;;;;0.41;84.81;100723.31;103532;1300;22852;-27
2022/03/17 04:23:03;;;;;;;81.10;37.10;;;;;;;0.40;84.94;100725.32;103587;1300;24263;-26
2022/03/17 04:25:29;;;;;;;83.10;33.00;;;;;;;0.39;84.90;100731.20;103582;1300;24237;-26
2022/03/17 04:27:56;;;;;;;126.10;49.20;;;;;;;0.35;85.07;100736.57;103551;1300;24292;-28
2022/03/17 04:30:21;;;;;;;73.40;35.80;;;;;;;0.30;84.91;100744.64;103493;1300;24250;-26
2022/03/17 04:32:47;;;;;;;71.40;32.20;;;;;;;0.23;85.19;100753.39;103508;1300;24215;-26
2022/03/17 04:35:13;;;;;;;67.20;32.70;;;;;;;0.18;85.25;100758.25;103580;1300;22504;-27
2022/03/17 04:37:39;;;;;;;64.20;28.30;;;;;;;0.13;85.33;100769.52;103557;1300;24211;-26
2022/03/17 04:40:06;;;;;;;61.60;30.30;;;;;;;0.08;85.80;100777.92;103645;1300;24349;-29
2022/03/17 04:42:31;;;;;;;73.30;29.70;;;;;;;0.08;85.08;100778.11;103597;1300;24416;-25
2022/03/17 04:44:57;;;;;;;75.80;32.00;;;;;;;-0.03;85.71;100788.94;103697;1300;22499;-26
2022/03/17 04:47:23;;;;;;;72.70;32.90;;;;;;;-0.05;85.70;100789.81;103731;1300;24224;-27
2022/03/17 04:49:49;;;;;;;82.30;36.90;;;;;;;-0.08;85.51;100791.89;103525;1300;24362;-25
2022/03/17 04:54:44;;;;;;;79.70;35.30;;;;;;;-0.12;85.10;100799.58;103562;1300;22504;-26
2022/03/17 04:57:09;;;;;;;123.30;36.70;;;;;;;-0.14;85.68;100806.55;103621;1299;24237;-26
2022/03/17 04:59:35;;;;;;;114.00;40.60;;;;;;;-0.15;86.69;100812.27;103510;1300;24301;-26
2022/03/17 05:02:00;;;;;;;116.90;43.40;;;;;;;-0.15;86.42;100818.45;103547;1300;24188;-26
2022/03/17 05:04:26;;;;;;;127.90;48.60;;;;;;;-0.17;86.43;100819.95;103673;1300;24245;-26
2022/03/17 05:06:52;;;;;;;77.70;33.00;;;;;;;-0.11;88.49;100828.55;103441;1302;22498;-28
2022/03/17 05:09:17;;;;;;;71.70;33.20;;;;;;;-0.03;87.87;100831.60;103673;1300;24294;-29
2022/03/17 05:11:43;;;;;;;78.70;33.40;;;;;;;0.05;87.05;100840.77;103635;1298;24361;-27
2022/03/17 05:14:09;;;;;;;82.60;34.60;;;;;;;0.12;88.09;100843.34;103672;1299;24467;-25
2022/03/17 05:16:34;;;;;;;77.50;35.90;;;;;;;0.22;87.77;100849.97;103561;1300;22724;-26
2022/03/17 05:19:00;;;;;;;80.30;35.90;;;;;;;0.28;85.95;100850.63;103632;1300;24254;-28
2022/03/17 05:21:26;;;;;;;80.90;36.80;;;;;;;0.31;85.39;100855.03;103644;1300;24317;-26
2022/03/17 05:23:52;;;;;;;88.80;40.80;;;;;;;0.37;85.36;100857.70;103557;1300;24251;-26
2022/03/17 05:26:19;;;;;;;85.20;36.50;;;;;;;0.45;85.23;100863.14;103637;1300;24234;-29
2022/03/17 05:28:45;;;;;;;79.50;37.30;;;;;;;0.53;84.99;100866.55;103721;1300;24411;-27
2022/03/17 05:31:11;;;;;;;82.50;36.00;;;;;;;0.57;84.82;100869.27;103684;1300;24278;-29
2022/03/17 05:33:37;;;;;;;78.10;36.40;;;;;;;0.61;84.70;100868.87;103701;1300;24196;-30
2022/03/17 05:36:05;;;;;;;83.50;37.40;;;;;;;0.67;84.55;100874.11;103548;1300;24293;-28
2022/03/17 05:38:31;;;;;;;80.80;37.70;;;;;;;0.73;84.37;100878.14;103727;1300;22601;-26
2022/03/17 05:40:57;;;;;;;83.40;35.30;;;;;;;0.79;84.10;100883.73;103792;1300;22687;-29
2022/03/17 05:43:23;;;;;;;72.20;34.00;;;;;;;0.88;83.91;100884.76;103594;1300;24318;-25
2022/03/17 05:45:49;;;;;;;89.90;36.30;;;;;;;1.00;83.54;100886.49;103666;1300;24310;-28
2022/03/17 05:48:15;;;;;;;79.80;33.80;;;;;;;1.06;83.28;100889.75;103481;1301;24217;-28
2022/03/17 05:50:41;;;;;;;78.70;38.30;;;;;;;1.11;83.10;100889.43;103632;1299;24188;-26
2022/03/17 05:53:09;;;;;;;74.20;35.50;;;;;;;1.16;82.86;100887.67;103631;1300;24349;-31
2022/03/17 05:55:34;;;;;;;85.60;35.70;;;;;;;1.24;82.71;100894.44;103669;1300;24208;-25
2022/03/17 05:58:01;;;;;;;73.90;36.60;;;;;;;1.29;82.38;100892.89;103552;1301;24364;-29
2022/03/17 06:00:27;;;;;;;86.60;36.40;;;;;;;1.36;82.26;100898.23;103704;1300;24259;-26
2022/03/17 06:02:53;;;;;;;76.80;37.30;;;;;;;1.42;81.96;100900.89;103707;1299;24285;-26
2022/03/17 06:05:20;;;;;;;72.80;36.60;;;;;;;1.48;81.82;100905.41;103680;1299;24252;-29
2022/03/17 06:07:47;;;;;;;91.30;37.10;;;;;;;1.56;81.60;100908.23;103570;1303;24329;-29
2022/03/17 06:10:14;;;;;;;80.10;34.70;;;;;;;1.60;81.52;100913.77;103710;1299;22886;-25
2022/03/17 06:12:40;;;;;;;73.60;34.90;;;;;;;1.66;81.37;100915.13;103725;1299;24215;-25
2022/03/17 06:15:07;;;;;;;75.20;36.90;;;;;;;1.73;81.37;100917.46;103624;1302;24311;-27
2022/03/17 06:17:36;;;;;;;82.20;38.00;;;;;;;1.85;81.24;100920.02;103600;1301;22516;-30
2022/03/17 06:20:02;;;;;;;73.50;37.10;;;;;;;2.01;81.09;100920.56;103693;1300;24208;-25
2022/03/17 06:22:28;;;;;;;72.50;33.20;;;;;;;2.19;81.36;100921.66;103705;1300;24361;-27
2022/03/17 06:24:53;;;;;;;85.70;35.90;;;;;;;2.40;81.18;100926.02;103527;1300;24221;-30
2022/03/17 06:27:19;;;;;;;64.60;32.40;;;;;;;2.59;81.08;100925.73;103535;1303;22720;-28
2022/03/17 06:29:45;;;;;;;80.90;38.30;;;;;;;2.79;80.75;100928.06;103651;1299;24352;-25
2022/03/17 06:32:11;;;;;;;76.80;38.10;;;;;;;2.97;80.12;100928.89;103504;1303;22911;-28
2022/03/17 06:34:37;;;;;;;76.60;36.40;;;;;;;3.06;79.41;100937.43;103596;1299;24288;-25
2022/03/17 06:37:03;;;;;;;77.50;37.10;;;;;;;3.10;78.75;100936.11;103560;1302;24211;-29
2022/03/17 06:39:28;;;;;;;85.00;36.70;;;;;;;3.15;78.34;100938.52;103651;1299;24288;-25
2022/03/17 06:41:54;;;;;;;82.30;36.50;;;;;;;3.18;77.97;100946.66;103622;1300;24295;-28
2022/03/17 06:44:21;;;;;;;76.10;36.60;;;;;;;3.21;77.99;100948.70;103707;1300;24267;-26
2022/03/17 06:46:47;;;;;;;93.00;39.60;;;;;;;3.26;77.59;100946.27;103547;1302;24365;-29
2022/03/17 06:49:13;;;;;;;73.00;35.00;;;;;;;3.27;77.10;100949.55;103455;1302;24313;-25
2022/03/17 06:51:39;;;;;;;76.80;35.60;;;;;;;3.34;75.92;100951.30;103672;1300;24141;-29
2022/03/17 06:54:04;;;;;;;84.00;39.80;;;;;;;3.27;75.79;100949.17;103551;1300;24244;-28
2022/03/17 06:56:31;;;;;;;78.00;37.50;;;;;;;3.29;75.94;100952.77;103678;1299;24278;-26
2022/03/17 06:58:57;;;;;;;71.80;37.50;;;;;;;3.33;76.02;100955.28;103674;1300;24208;-25
2022/03/17 07:01:22;;;;;;;76.00;35.80;;;;;;;3.43;75.55;100955.30;103668;1300;24276;-28
2022/03/17 07:03:48;;;;;;;77.50;37.40;;;;;;;3.46;75.62;100958.98;103624;1299;24236;-31
2022/03/17 07:06:14;;;;;;;72.20;35.30;;;;;;;3.48;74.86;100964.32;103554;1302;24403;-25
2022/03/17 07:08:40;;;;;;;83.10;35.40;;;;;;;3.51;74.54;100968.86;103655;1300;24353;-26
2022/03/17 07:11:06;;;;;;;73.80;34.90;;;;;;;3.61;74.27;100971.16;103495;1300;24168;-29
2022/03/17 07:13:32;;;;;;;68.60;34.50;;;;;;;3.76;73.94;100969.17;103554;1303;22514;-31
2022/03/17 07:15:57;;;;;;;74.60;34.80;;;;;;;3.94;73.32;100963.34;103556;1300;24174;-28
2022/03/17 07:18:23;;;;;;;67.30;32.80;;;;;;;4.12;72.27;100969.77;103549;1302;22496;-28
2022/03/17 07:20:49;;;;;;;74.30;34.90;;;;;;;4.23;71.84;100971.42;103617;1297;24240;-28
2022/03/17 07:23:15;;;;;;;74.30;35.10;;;;;;;4.57;71.01;100969.34;103531;1300;22504;-23
2022/03/17 07:25:41;;;;;;;71.10;37.00;;;;;;;4.75;69.59;100967.39;103615;1299;24218;-28
2022/03/17 07:28:07;;;;;;;74.30;40.90;;;;;;;4.93;69.70;100974.83;103687;1300;24208;-30
2022/03/17 07:30:34;;;;;;;60.50;32.90;;;;;;;5.17;68.40;100980.75;103535;1300;24223;-30
2022/03/17 07:32:59;;;;;;;65.20;31.50;;;;;;;5.30;66.96;100982.94;103638;1299;24207;-28
2022/03/17 07:35:26;;;;;;;72.60;37.10;;;;;;;5.48;67.21;100981.10;103591;1300;24425;-24
2022/03/17 07:37:52;;;;;;;63.10;33.90;;;;;;;5.83;66.55;100980.05;103580;1300;22822;-30
2022/03/17 07:40:18;;;;;;;67.00;36.10;;;;;;;6.01;65.04;100982.23;103624;1301;24172;-25
2022/03/17 07:42:44;;;;;;;66.70;32.80;;;;;;;6.18;63.86;100974.76;103575;1300;24352;-28
2022/03/17 07:45:11;;;;;;;66.60;32.20;;;;;;;6.31;62.79;100975.46;103699;1300;24387;-28
2022/03/17 07:47:47;;;;;;;67.10;34.70;;;;;;;6.37;62.56;100973.00;103530;1302;24215;-28
2022/03/17 07:50:13;;;;;;;63.60;31.90;;;;;;;6.52;61.41;100979.70;103604;1300;22596;-28
2022/03/17 07:52:39;;;;;;;67.20;35.80;;;;;;;6.65;60.70;100983.46;103460;1303;24432;-28
2022/03/17 07:55:05;;;;;;;62.60;31.10;;;;;;;6.75;59.41;100983.26;103660;1300;24207;-28
2022/03/17 07:57:31;;;;;;;63.70;32.20;;;;;;;6.79;59.58;100988.84;103493;1301;24215;-23
2022/03/17 07:59:57;;;;;;;73.60;32.80;;;;;;;6.96;60.12;100986.63;103672;1299;24344;-25
2022/03/17 08:02:23;;;;;;;64.80;33.60;;;;;;;7.17;59.31;100985.23;103720;1300;24208;-27
2022/03/17 08:04:50;;;;;;;67.70;33.30;;;;;;;7.38;58.72;100984.59;103513;1300;24276;-25
2022/03/17 08:07:16;;;;;;;62.50;32.80;;;;;;;7.50;57.64;100983.37;103744;1300;24310;-28
2022/03/17 08:09:42;;;;;;;58.50;28.90;;;;;;;7.63;57.01;100978.19;103502;1300;24177;-25
2022/03/17 08:12:09;;;;;;;61.10;29.90;;;;;;;7.72;55.86;100977.65;103628;1299;24314;-29
2022/03/17 08:14:35;;;;;;;64.00;32.00;;;;;;;7.83;55.13;100979.75;103528;1302;24147;-25
2022/03/17 08:17:01;;;;;;;55.20;30.60;;;;;;;7.93;54.70;100985.23;103495;1300;24316;-28
2022/03/17 08:19:26;;;;;;;64.70;27.00;;;;;;;8.07;54.39;100985.75;103454;1300;24237;-25
2022/03/17 08:21:56;;;;;;;48.20;28.90;;;;;;;8.22;54.58;100987.51;103497;1302;24311;-28
2022/03/17 08:24:22;;;;;;;52.70;30.00;;;;;;;8.64;53.55;100985.95;103599;1303;23830;-28
2022/03/17 08:26:47;;;;;;;54.30;29.50;;;;;;;8.79;52.59;100985.73;103607;1300;24302;-30
2022/03/17 08:29:14;;;;;;;54.70;29.10;;;;;;;8.92;52.87;100986.01;103665;1299;24364;-27
2022/03/17 08:31:40;;;;;;;59.70;29.30;;;;;;;9.10;53.05;100987.11;103507;1301;24381;-25
2022/03/17 08:34:05;;;;;;;57.00;31.90;;;;;;;9.36;51.83;100987.73;103688;1300;22493;-28
2022/03/17 08:36:31;;;;;;;56.00;29.10;;;;;;;9.47;50.54;100979.89;103558;1302;24364;-28
2022/03/17 08:38:57;;;;;;;60.50;29.60;;;;;;;9.54;50.55;100976.38;103595;1302;24463;-27
2022/03/17 08:41:23;;;;;;;51.50;27.30;;;;;;;9.75;49.97;100971.11;103628;1300;24211;-25
2022/03/17 08:43:49;;;;;;;46.50;26.70;;;;;;;9.73;49.09;100967.11;103716;1300;24174;-29
2022/03/17 08:51:13;;;;;;;42.00;23.40;;;;;;;10.21;46.99;100959.45;103682;1300;23360;-28
2022/03/17 08:53:39;;;;;;;51.10;27.50;;;;;;;10.29;46.54;100955.94;103467;1302;26165;-25
2022/03/17 08:56:05;;;;;;;45.80;26.10;;;;;;;10.36;46.17;100959.40;103597;1301;24224;-28
2022/03/17 08:58:31;;;;;;;43.60;25.30;;;;;;;10.20;45.68;100964.55;103712;1300;24475;-27
2022/03/17 09:00:59;;;;;;;52.10;27.50;;;;;;;10.28;45.77;100961.06;103533;1303;24318;-28
2022/03/17 09:03:26;;;;;;;39.50;22.90;;;;;;;10.16;44.87;100960.65;103668;1300;24287;-24
2022/03/17 09:05:52;;;;;;;49.60;27.10;;;;;;;10.07;45.10;100964.84;103710;1300;22746;-28
2022/03/17 09:08:18;;;;;;;52.80;24.90;;;;;;;10.10;45.78;100962.39;103630;1300;24198;-28
2022/03/17 09:10:45;;;;;;;43.00;23.80;;;;;;;10.13;46.08;100957.77;103674;1300;24235;-25
2022/03/17 09:13:13;;;;;;;45.10;24.70;;;;;;;10.27;44.65;100960.46;103525;1302;24364;-25
2022/03/17 09:15:42;;;;;;;45.70;23.10;;;;;;;10.17;44.44;100968.98;103640;1303;22755;-28
2022/03/17 09:18:09;;;;;;;44.20;22.80;;;;;;;10.09;44.70;100970.52;103551;1303;24195;-25
2022/03/17 09:20:35;;;;;;;39.10;22.20;;;;;;;10.24;44.01;100971.40;103465;1302;24230;-26
2022/03/17 09:23:02;;;;;;;35.70;21.40;;;;;;;10.37;44.52;100966.48;103595;1300;24297;-24
2022/03/17 09:25:29;;;;;;;41.00;21.90;;;;;;;10.48;43.77;100968.89;103525;1300;24310;-28
2022/03/17 09:27:55;;;;;;;40.30;22.80;;;;;;;10.75;42.90;100960.41;103592;1303;22583;-25
2022/03/17 09:30:21;;;;;;;35.40;21.60;;;;;;;11.03;41.11;100959.48;103585;1300;24337;-29
2022/03/17 09:32:47;;;;;;;35.20;20.90;;;;;;;11.08;40.97;100956.08;103553;1301;24145;-24
2022/03/17 09:35:13;;;;;;;35.40;22.20;;;;;;;11.07;40.98;100957.45;103681;1300;24215;-24
2022/03/17 09:37:40;;;;;;;41.80;20.60;;;;;;;11.18;41.63;100959.50;103520;1302;24304;-28
2022/03/17 09:40:07;;;;;;;36.20;19.80;;;;;;;11.34;40.67;100960.84;103512;1302;24256;-24
2022/03/17 09:42:33;;;;;;;30.60;17.50;;;;;;;11.54;40.34;100962.48;103609;1300;22629;-28
2022/03/17 09:44:59;;;;;;;29.30;16.90;;;;;;;11.58;39.31;100960.70;103672;1300;24218;-25
2022/03/17 09:47:27;;;;;;;28.20;17.20;;;;;;;11.56;40.26;100963.70;103656;1300;24456;-29
2022/03/17 09:49:53;;;;;;;29.50;16.90;;;;;;;11.62;39.00;100963.14;103532;1302;24998;-30
2022/03/17 09:52:20;;;;;;;30.10;15.90;;;;;;;11.71;38.38;100966.19;103546;1302;24217;-25
2022/03/17 09:54:46;;;;;;;30.90;17.70;;;;;;;11.69;37.99;100963.89;103715;1300;24233;-29
2022/03/17 09:57:16;;;;;;;32.30;18.30;;;;;;;11.48;38.93;100967.72;103623;1300;24441;-28
2022/03/17 09:59:44;;;;;;;34.40;17.70;;;;;;;11.21;39.46;100972.09;103711;1300;24216;-25
2022/03/17 10:02:12;;;;;;;28.10;17.20;;;;;;;11.37;39.63;100975.08;103577;1302;24292;-29
2022/03/17 10:04:39;;;;;;;26.80;17.30;;;;;;;11.50;39.11;100976.50;103556;1302;24223;-27
2022/03/17 10:07:06;;;;;;;26.90;17.90;;;;;;;11.38;38.99;100978.74;103569;1303;24322;-27
2022/03/17 10:09:32;;;;;;;28.60;18.10;;;;;;;11.23;39.50;100979.44;103589;1302;24210;-28
2022/03/17 10:12:01;;;;;;;34.10;17.30;;;;;;;11.27;39.63;100979.89;103568;1300;24164;-24
2022/03/17 10:14:34;;;;;;;27.50;15.60;;;;;;;11.11;40.49;100980.30;103654;1303;24351;-29
2022/03/17 10:17:00;;;;;;;25.30;15.80;;;;;;;11.17;39.42;100978.94;103585;1300;23716;-28
2022/03/17 10:19:31;;;;;;;28.40;14.70;;;;;;;10.94;39.10;100981.68;103648;1300;24250;-25
2022/03/17 10:22:06;;;;;;;23.60;14.40;;;;;;;10.92;40.00;100983.55;103621;1303;24224;-29
2022/03/17 10:24:33;;;;;;;27.50;16.40;;;;;;;11.06;39.92;100975.09;103632;1300;24217;-28
2022/03/17 10:27:01;;;;;;;25.70;15.90;;;;;;;11.12;40.20;100977.91;103702;1300;24298;-25
2022/03/17 10:29:27;;;;;;;24.10;14.50;;;;;;;11.18;39.98;100970.81;103477;1302;24234;-28
2022/03/17 10:31:59;;;;;;;22.80;14.80;;;;;;;11.14;39.67;100975.09;103614;1299;24343;-28
2022/03/17 10:34:28;;;;;;;26.70;14.50;;;;;;;11.03;40.58;100978.06;103664;1299;24210;-26
2022/03/17 10:37:06;;;;;;;18.60;13.60;;;;;;;11.06;40.31;100979.77;103757;1300;23837;-29
2022/03/17 10:39:36;;;;;;;18.80;13.00;;;;;;;11.21;39.11;100980.30;103659;1299;22524;-24
2022/03/17 10:42:09;;;;;;;21.40;12.40;;;;;;;11.30;39.10;100983.59;103520;1300;24207;-28
2022/03/17 10:44:35;;;;;;;22.40;14.30;;;;;;;11.63;39.33;100977.48;103588;1300;22509;-25
2022/03/17 10:47:01;;;;;;;19.90;12.70;;;;;;;11.83;38.42;100974.63;103251;1305;24252;-29
2022/03/17 10:49:28;;;;;;;18.30;13.20;;;;;;;12.00;37.89;100967.50;103563;1303;22607;-28
2022/03/17 10:51:55;;;;;;;26.80;14.50;;;;;;;11.92;37.57;100966.95;103590;1300;22499;-25
2022/03/17 10:54:21;;;;;;;21.70;12.80;;;;;;;11.87;36.41;100965.21;103498;1302;24224;-25
2022/03/17 10:56:54;;;;;;;26.40;11.70;;;;;;;11.67;37.81;100968.54;103625;1300;24421;-31
2022/03/17 10:59:19;;;;;;;21.20;13.20;;;;;;;11.62;37.61;100970.40;103561;1300;24246;-30
2022/03/17 11:01:45;;;;;;;37.10;13.10;;;;;;;11.65;37.98;100964.16;103496;1302;24240;-31
2022/03/17 11:04:11;;;;;;;19.70;12.40;;;;;;;11.58;38.25;100969.56;103574;1300;24313;-31
2022/03/17 11:06:38;;;;;;;17.10;12.00;;;;;;;11.81;37.14;100962.08;103613;1300;24265;-27
2022/03/17 11:09:08;;;;;;;15.40;9.30;;;;;;;11.59;36.94;100967.88;103595;1300;22758;-31
2022/03/17 11:11:34;;;;;;;14.60;11.10;;;;;;;11.57;38.16;100967.27;103608;1302;23243;-25
2022/03/17 11:14:00;;;;;;;14.80;7.60;;;;;;;11.75;38.20;100966.70;103558;1300;24430;-25
2022/03/17 11:16:36;;;;;;;12.70;7.80;;;;;;;11.97;36.57;100959.98;103574;1303;24217;-28
2022/03/17 11:19:01;;;;;;;11.60;8.00;;;;;;;11.79;36.42;100954.08;103601;1303;23832;-26